WZZ4GA LKMT-LGZA
Flight info
| Callsign | WZZ4GA |
|---|---|
| Flight time | N/A |
| Altitude | 35000 |
| Route | BILNA L617 NIDOK DCT BALAP DCT PARAK DCT REDVA UL616 KOGAT DCT BITLA UN731 YNN UT352 ASTUS |
| Aircraft | A321/M-SDE3FGHIRWY/LB1 |
Departure
| Time | 2026-05-04 19:52 |
|---|---|
| Airport | Leoš Janáček Airport Ostrava (LKMT) |
Arrival
| Time | N/A |
|---|---|
| Airport | Zakynthos International Airport Dionysios Solomos (LGZA) |
| Time | Latitude | Longitude | Altitude | Speed | Heading |
|---|---|---|---|---|---|
| 2026-05-04 19:35 | 49.69536 | 18.11922 | 828 ft | 0 kts | 175° |
| 2026-05-04 19:47 | 49.69531 | 18.11921 | 831 ft | 1 kts | 187° |
| 2026-05-04 19:47 | 49.69531 | 18.11900 | 830 ft | 4 kts | 277° |
| 2026-05-04 19:47 | 49.69581 | 18.11834 | 830 ft | 14 kts | 324° |
| 2026-05-04 19:47 | 49.69666 | 18.11859 | 829 ft | 14 kts | 42° |
| 2026-05-04 19:48 | 49.69741 | 18.11979 | 826 ft | 17 kts | 46° |
| 2026-05-04 19:48 | 49.69830 | 18.12120 | 825 ft | 19 kts | 46° |
| 2026-05-04 19:48 | 49.69924 | 18.12274 | 823 ft | 20 kts | 46° |
| 2026-05-04 19:48 | 49.70016 | 18.12424 | 824 ft | 15 kts | 44° |
| 2026-05-04 19:49 | 49.70101 | 18.12404 | 824 ft | 15 kts | 320° |
| 2026-05-04 19:49 | 49.70165 | 18.12311 | 826 ft | 6 kts | 316° |
| 2026-05-04 19:49 | 49.70178 | 18.12292 | 826 ft | 3 kts | 317° |
| 2026-05-04 19:49 | 49.70211 | 18.12245 | 826 ft | 10 kts | 317° |
| 2026-05-04 19:50 | 49.70291 | 18.12190 | 826 ft | 19 kts | 23° |
| 2026-05-04 19:50 | 49.70412 | 18.12356 | 826 ft | 26 kts | 46° |
| 2026-05-04 19:50 | 49.70541 | 18.12563 | 823 ft | 28 kts | 46° |
| 2026-05-04 19:50 | 49.70654 | 18.12766 | 820 ft | 12 kts | 83° |
| 2026-05-04 19:51 | 49.70685 | 18.12834 | 820 ft | 4 kts | 330° |
| 2026-05-04 19:51 | 49.70678 | 18.12790 | 818 ft | 9 kts | 234° |
| 2026-05-04 19:51 | 49.70536 | 18.12562 | 823 ft | 61 kts | 226° |
| 2026-05-04 19:51 | 49.70092 | 18.11847 | 825 ft | 122 kts | 226° |
| 2026-05-04 19:52 | 49.69394 | 18.10722 | 829 ft | 170 kts | 226° |
| 2026-05-04 19:52 | 49.68559 | 18.09349 | 1382 ft | 171 kts | 226° |
| 2026-05-04 19:52 | 49.67735 | 18.08013 | 2061 ft | 172 kts | 225° |
| 2026-05-04 19:52 | 49.66920 | 18.06703 | 2679 ft | 172 kts | 224° |
| 2026-05-04 19:53 | 49.66054 | 18.05316 | 2878 ft | 188 kts | 224° |
| 2026-05-04 19:53 | 49.65091 | 18.03778 | 2982 ft | 210 kts | 223° |
| 2026-05-04 19:53 | 49.64011 | 18.02057 | 3159 ft | 234 kts | 224° |
| 2026-05-04 19:53 | 49.62861 | 18.00214 | 3716 ft | 242 kts | 224° |
| 2026-05-04 19:54 | 49.61684 | 17.98320 | 4351 ft | 246 kts | 225° |
| 2026-05-04 19:54 | 49.60493 | 17.96405 | 5033 ft | 248 kts | 225° |
| 2026-05-04 19:54 | 49.59142 | 17.94725 | 5630 ft | 253 kts | 207° |
| 2026-05-04 19:54 | 49.57433 | 17.94026 | 6220 ft | 261 kts | 182° |
| 2026-05-04 19:55 | 49.55633 | 17.94614 | 6755 ft | 271 kts | 159° |
| 2026-05-04 19:55 | 49.53894 | 17.95811 | 7365 ft | 275 kts | 159° |
| 2026-05-04 19:55 | 49.52142 | 17.97023 | 8007 ft | 278 kts | 159° |
| 2026-05-04 19:55 | 49.50364 | 17.98244 | 8625 ft | 281 kts | 159° |
| 2026-05-04 19:56 | 49.48568 | 17.99470 | 9261 ft | 284 kts | 159° |
| 2026-05-04 19:56 | 49.46749 | 18.00712 | 9890 ft | 287 kts | 159° |
| 2026-05-04 19:56 | 49.44899 | 18.01969 | 10268 ft | 299 kts | 159° |
| 2026-05-04 19:56 | 49.42952 | 18.03280 | 10399 ft | 319 kts | 159° |
| 2026-05-04 19:57 | 49.40826 | 18.04709 | 10516 ft | 339 kts | 159° |
| 2026-05-04 19:57 | 49.38635 | 18.06182 | 10642 ft | 358 kts | 159° |
| 2026-05-04 19:57 | 49.36305 | 18.07752 | 10860 ft | 371 kts | 159° |
| 2026-05-04 19:57 | 49.33929 | 18.09359 | 11380 ft | 375 kts | 159° |
| 2026-05-04 19:58 | 49.31535 | 18.10982 | 11986 ft | 377 kts | 159° |
| 2026-05-04 19:58 | 49.29129 | 18.12615 | 12580 ft | 379 kts | 159° |
| 2026-05-04 19:58 | 49.26709 | 18.14251 | 13181 ft | 381 kts | 159° |
| 2026-05-04 19:58 | 49.24271 | 18.15888 | 13730 ft | 384 kts | 159° |
| 2026-05-04 19:59 | 49.21818 | 18.17527 | 14258 ft | 387 kts | 159° |
| 2026-05-04 19:59 | 49.19338 | 18.19177 | 14773 ft | 390 kts | 159° |
| 2026-05-04 19:59 | 49.16841 | 18.20838 | 15276 ft | 392 kts | 159° |
| 2026-05-04 19:59 | 49.14332 | 18.22510 | 15784 ft | 395 kts | 159° |
| 2026-05-04 20:00 | 49.11797 | 18.24203 | 16293 ft | 399 kts | 159° |
| 2026-05-04 20:00 | 49.09252 | 18.25905 | 16794 ft | 402 kts | 159° |
| 2026-05-04 20:00 | 49.06680 | 18.27626 | 17307 ft | 405 kts | 159° |
| 2026-05-04 20:00 | 49.04120 | 18.29334 | 17723 ft | 410 kts | 159° |
| 2026-05-04 20:01 | 49.01470 | 18.31096 | 17950 ft | 418 kts | 159° |
| 2026-05-04 20:01 | 48.98778 | 18.32880 | 18241 ft | 425 kts | 158° |
| 2026-05-04 20:01 | 48.96052 | 18.34683 | 18511 ft | 431 kts | 158° |
| 2026-05-04 20:01 | 48.93286 | 18.36509 | 18765 ft | 436 kts | 158° |
| 2026-05-04 20:02 | 48.90484 | 18.38361 | 19018 ft | 441 kts | 158° |
| 2026-05-04 20:02 | 48.87666 | 18.40226 | 19298 ft | 443 kts | 158° |
| 2026-05-04 20:02 | 48.84826 | 18.42105 | 19562 ft | 446 kts | 158° |
| 2026-05-04 20:02 | 48.81977 | 18.43985 | 19828 ft | 448 kts | 158° |
| 2026-05-04 20:03 | 48.79105 | 18.45874 | 20098 ft | 451 kts | 158° |
| 2026-05-04 20:03 | 48.76223 | 18.47767 | 20379 ft | 453 kts | 158° |
| 2026-05-04 20:03 | 48.73322 | 18.49668 | 20652 ft | 455 kts | 158° |
| 2026-05-04 20:03 | 48.70432 | 18.51561 | 21326 ft | 446 kts | 158° |
| 2026-05-04 20:04 | 48.67590 | 18.53422 | 21958 ft | 444 kts | 158° |
| 2026-05-04 20:04 | 48.64754 | 18.55273 | 22368 ft | 445 kts | 158° |
| 2026-05-04 20:04 | 48.61888 | 18.57141 | 22667 ft | 450 kts | 158° |
| 2026-05-04 20:04 | 48.59000 | 18.59023 | 22959 ft | 454 kts | 158° |
| 2026-05-04 20:05 | 48.56095 | 18.60917 | 23270 ft | 457 kts | 158° |
| 2026-05-04 20:05 | 48.53163 | 18.62829 | 23574 ft | 460 kts | 158° |
| 2026-05-04 20:05 | 48.50218 | 18.64746 | 23870 ft | 463 kts | 158° |
| 2026-05-04 20:05 | 48.47289 | 18.66646 | 24212 ft | 463 kts | 157° |
| 2026-05-04 20:06 | 48.44323 | 18.68564 | 24530 ft | 464 kts | 158° |
| 2026-05-04 20:06 | 48.41355 | 18.70483 | 24812 ft | 465 kts | 157° |
| 2026-05-04 20:06 | 48.38372 | 18.72412 | 25111 ft | 467 kts | 157° |
| 2026-05-04 20:06 | 48.35387 | 18.74340 | 25395 ft | 469 kts | 157° |
| 2026-05-04 20:07 | 48.32380 | 18.76284 | 25666 ft | 471 kts | 157° |
| 2026-05-04 20:07 | 48.29361 | 18.78235 | 25951 ft | 473 kts | 157° |
| 2026-05-04 20:07 | 48.26336 | 18.80187 | 26235 ft | 475 kts | 158° |
| 2026-05-04 20:07 | 48.23296 | 18.82139 | 26521 ft | 477 kts | 158° |
| 2026-05-04 20:08 | 48.20244 | 18.84094 | 26883 ft | 476 kts | 158° |
| 2026-05-04 20:08 | 48.17203 | 18.86039 | 27271 ft | 475 kts | 158° |
| 2026-05-04 20:08 | 48.14161 | 18.87985 | 27657 ft | 475 kts | 158° |
| 2026-05-04 20:08 | 48.11126 | 18.89928 | 28036 ft | 474 kts | 158° |
| 2026-05-04 20:09 | 48.08092 | 18.91866 | 28427 ft | 473 kts | 158° |
| 2026-05-04 20:09 | 48.05068 | 18.93791 | 28804 ft | 473 kts | 158° |
| 2026-05-04 20:09 | 48.02040 | 18.95720 | 29182 ft | 472 kts | 158° |
| 2026-05-04 20:09 | 47.99024 | 18.97640 | 29557 ft | 472 kts | 158° |
| 2026-05-04 20:10 | 47.96004 | 18.99559 | 29944 ft | 471 kts | 158° |
| 2026-05-04 20:10 | 47.92987 | 19.01472 | 30268 ft | 470 kts | 158° |
| 2026-05-04 20:10 | 47.89981 | 19.03371 | 30580 ft | 470 kts | 158° |
| 2026-05-04 20:10 | 47.86969 | 19.05270 | 30878 ft | 469 kts | 158° |
| 2026-05-04 20:11 | 47.83962 | 19.07171 | 31182 ft | 469 kts | 158° |
| 2026-05-04 20:11 | 47.80959 | 19.09074 | 31481 ft | 468 kts | 158° |
| 2026-05-04 20:11 | 47.77966 | 19.10967 | 31783 ft | 468 kts | 158° |
| 2026-05-04 20:11 | 47.74973 | 19.12852 | 32077 ft | 467 kts | 158° |
| 2026-05-04 20:12 | 47.71974 | 19.14736 | 32366 ft | 467 kts | 158° |
| 2026-05-04 20:12 | 47.68983 | 19.16610 | 32658 ft | 467 kts | 158° |
| 2026-05-04 20:12 | 47.66030 | 19.18458 | 32923 ft | 466 kts | 158° |
| 2026-05-04 20:12 | 47.63045 | 19.20328 | 33220 ft | 466 kts | 158° |
| 2026-05-04 20:13 | 47.60056 | 19.22198 | 33503 ft | 466 kts | 158° |
| 2026-05-04 20:13 | 47.57070 | 19.24063 | 33785 ft | 465 kts | 158° |
| 2026-05-04 20:13 | 47.54085 | 19.25925 | 34054 ft | 465 kts | 158° |
| 2026-05-04 20:13 | 47.51104 | 19.27784 | 34294 ft | 464 kts | 158° |
| 2026-05-04 20:14 | 47.49132 | 19.29014 | 34440 ft | 464 kts | 158° |
| 2026-05-04 20:14 | 47.46160 | 19.30863 | 34663 ft | 464 kts | 158° |
| 2026-05-04 20:14 | 47.43190 | 19.32706 | 34897 ft | 463 kts | 158° |
| 2026-05-04 20:14 | 47.40213 | 19.34552 | 35022 ft | 464 kts | 158° |
| 2026-05-04 20:15 | 47.37232 | 19.36399 | 35055 ft | 466 kts | 158° |
| 2026-05-04 20:15 | 47.31244 | 19.40108 | 35056 ft | 467 kts | 158° |
| 2026-05-04 20:16 | 47.25257 | 19.43794 | 35057 ft | 466 kts | 158° |
| 2026-05-04 20:16 | 47.19273 | 19.47468 | 35054 ft | 466 kts | 158° |
| 2026-05-04 20:17 | 47.13287 | 19.51142 | 35060 ft | 466 kts | 158° |
| 2026-05-04 20:17 | 47.07295 | 19.54815 | 35066 ft | 467 kts | 158° |
| 2026-05-04 20:18 | 47.01296 | 19.58482 | 35071 ft | 467 kts | 158° |
| 2026-05-04 20:18 | 46.95293 | 19.62142 | 35083 ft | 467 kts | 157° |
| 2026-05-04 20:19 | 46.89293 | 19.65791 | 35076 ft | 468 kts | 158° |
| 2026-05-04 20:19 | 46.83275 | 19.69442 | 35101 ft | 468 kts | 158° |
| 2026-05-04 20:20 | 46.77262 | 19.73081 | 35101 ft | 468 kts | 158° |
| 2026-05-04 20:20 | 46.71240 | 19.76708 | 35096 ft | 468 kts | 158° |
| 2026-05-04 20:21 | 46.65264 | 19.80294 | 35086 ft | 468 kts | 158° |
| 2026-05-04 20:21 | 46.56234 | 19.85719 | 35083 ft | 468 kts | 157° |
| 2026-05-04 20:22 | 46.50214 | 19.89327 | 35085 ft | 469 kts | 157° |
| 2026-05-04 20:22 | 46.44184 | 19.92935 | 35080 ft | 469 kts | 157° |
| 2026-05-04 20:23 | 46.38148 | 19.96534 | 35079 ft | 469 kts | 157° |
| 2026-05-04 20:23 | 46.32106 | 20.00127 | 35085 ft | 470 kts | 158° |
| 2026-05-04 20:24 | 46.26052 | 20.03710 | 35090 ft | 470 kts | 158° |
| 2026-05-04 20:24 | 46.20001 | 20.07280 | 35082 ft | 470 kts | 158° |
| 2026-05-04 20:25 | 46.13718 | 20.09732 | 35086 ft | 469 kts | 170° |
| 2026-05-04 20:25 | 46.07297 | 20.11395 | 35086 ft | 469 kts | 170° |
| 2026-05-04 20:26 | 46.00861 | 20.13042 | 35091 ft | 470 kts | 170° |
| 2026-05-04 20:26 | 45.94420 | 20.14678 | 35098 ft | 470 kts | 170° |
| 2026-05-04 20:27 | 45.88006 | 20.16307 | 35094 ft | 471 kts | 170° |
| 2026-05-04 20:27 | 45.81549 | 20.17934 | 35092 ft | 471 kts | 170° |
| 2026-05-04 20:28 | 45.75089 | 20.19560 | 35083 ft | 471 kts | 170° |
| 2026-05-04 20:28 | 45.68628 | 20.21184 | 35090 ft | 471 kts | 170° |
| 2026-05-04 20:29 | 45.62166 | 20.22805 | 35092 ft | 471 kts | 170° |
| 2026-05-04 20:29 | 45.55697 | 20.24417 | 35082 ft | 471 kts | 170° |
| 2026-05-04 20:30 | 45.49235 | 20.26028 | 35088 ft | 472 kts | 170° |
| 2026-05-04 20:30 | 45.42766 | 20.27650 | 35077 ft | 472 kts | 170° |
| 2026-05-04 20:31 | 45.36288 | 20.29266 | 35075 ft | 473 kts | 170° |
| 2026-05-04 20:31 | 45.29844 | 20.30848 | 35075 ft | 473 kts | 170° |
| 2026-05-04 20:32 | 45.23352 | 20.32450 | 35079 ft | 474 kts | 170° |
| 2026-05-04 20:32 | 45.16855 | 20.34056 | 35083 ft | 474 kts | 170° |
| 2026-05-04 20:33 | 45.10354 | 20.35659 | 35082 ft | 474 kts | 170° |
| 2026-05-04 20:33 | 45.03849 | 20.37257 | 35089 ft | 475 kts | 170° |
| 2026-05-04 20:34 | 44.97328 | 20.38855 | 35097 ft | 475 kts | 170° |
| 2026-05-04 20:34 | 44.90808 | 20.40455 | 35097 ft | 476 kts | 170° |
| 2026-05-04 20:35 | 44.84282 | 20.42046 | 35100 ft | 476 kts | 170° |
| 2026-05-04 20:35 | 44.77743 | 20.43631 | 35101 ft | 476 kts | 170° |
| 2026-05-04 20:36 | 44.71209 | 20.45220 | 35102 ft | 476 kts | 170° |
| 2026-05-04 20:36 | 44.64674 | 20.46807 | 35106 ft | 477 kts | 170° |
| 2026-05-04 20:37 | 44.58129 | 20.48390 | 35102 ft | 477 kts | 170° |
| 2026-05-04 20:37 | 44.51622 | 20.49950 | 35101 ft | 478 kts | 170° |
| 2026-05-04 20:38 | 44.45068 | 20.51524 | 35098 ft | 478 kts | 170° |
| 2026-05-04 20:38 | 44.38510 | 20.53096 | 35106 ft | 477 kts | 170° |
| 2026-05-04 20:39 | 44.31935 | 20.53415 | 35105 ft | 473 kts | 194° |
| 2026-05-04 20:39 | 44.28833 | 20.51945 | 35093 ft | 469 kts | 210° |
| 2026-05-04 20:39 | 44.26132 | 20.49453 | 35090 ft | 463 kts | 225° |
| 2026-05-04 20:40 | 44.23990 | 20.46153 | 35085 ft | 457 kts | 239° |
| 2026-05-04 20:40 | 44.22366 | 20.42356 | 35082 ft | 455 kts | 243° |
| 2026-05-04 20:40 | 44.19237 | 20.34660 | 35079 ft | 457 kts | 243° |
| 2026-05-04 20:41 | 44.16091 | 20.26952 | 35082 ft | 458 kts | 243° |
| 2026-05-04 20:41 | 44.12925 | 20.19241 | 35085 ft | 459 kts | 243° |
| 2026-05-04 20:42 | 44.09751 | 20.11524 | 35098 ft | 459 kts | 243° |
| 2026-05-04 20:42 | 44.06570 | 20.03828 | 35105 ft | 459 kts | 243° |
| 2026-05-04 20:43 | 44.03383 | 19.96142 | 35091 ft | 459 kts | 243° |
| 2026-05-04 20:43 | 44.00224 | 19.88527 | 35113 ft | 457 kts | 243° |
| 2026-05-04 20:44 | 43.97048 | 19.80886 | 35118 ft | 456 kts | 243° |
| 2026-05-04 20:44 | 43.93864 | 19.73266 | 35124 ft | 455 kts | 243° |
| 2026-05-04 20:45 | 43.90684 | 19.65676 | 35116 ft | 455 kts | 243° |
| 2026-05-04 20:45 | 43.87511 | 19.58092 | 35117 ft | 455 kts | 243° |
| 2026-05-04 20:46 | 43.84327 | 19.50524 | 35112 ft | 454 kts | 243° |
| 2026-05-04 20:46 | 43.81134 | 19.42970 | 35121 ft | 454 kts | 243° |
| 2026-05-04 20:47 | 43.77943 | 19.35419 | 35119 ft | 454 kts | 243° |
| 2026-05-04 20:47 | 43.74749 | 19.27876 | 35121 ft | 454 kts | 243° |
| 2026-05-04 20:48 | 43.71544 | 19.20338 | 35121 ft | 454 kts | 243° |
| 2026-05-04 20:48 | 43.68341 | 19.12819 | 35113 ft | 454 kts | 243° |
| 2026-05-04 20:49 | 43.65128 | 19.05315 | 35123 ft | 454 kts | 243° |
| 2026-05-04 20:49 | 43.61938 | 18.97862 | 35130 ft | 454 kts | 243° |
| 2026-05-04 20:50 | 43.58719 | 18.90359 | 35127 ft | 454 kts | 243° |
| 2026-05-04 20:50 | 43.55499 | 18.82870 | 34901 ft | 453 kts | 242° |
| 2026-05-04 20:51 | 43.53880 | 18.79111 | 34043 ft | 459 kts | 242° |
| 2026-05-04 20:51 | 43.52241 | 18.75311 | 33146 ft | 462 kts | 242° |
| 2026-05-04 20:51 | 43.50591 | 18.71488 | 32262 ft | 465 kts | 242° |
| 2026-05-04 20:51 | 43.48932 | 18.67654 | 31401 ft | 468 kts | 242° |
| 2026-05-04 20:52 | 43.47258 | 18.63794 | 30554 ft | 470 kts | 242° |
| 2026-05-04 20:52 | 43.45576 | 18.59929 | 29628 ft | 472 kts | 242° |
| 2026-05-04 20:52 | 43.43876 | 18.56037 | 28569 ft | 475 kts | 242° |
| 2026-05-04 20:52 | 43.42165 | 18.52119 | 27490 ft | 479 kts | 242° |
| 2026-05-04 20:53 | 43.40447 | 18.48179 | 26389 ft | 483 kts | 242° |
| 2026-05-04 20:53 | 43.38710 | 18.44200 | 25330 ft | 486 kts | 241° |
| 2026-05-04 20:53 | 43.36973 | 18.40226 | 24556 ft | 484 kts | 240° |
| 2026-05-04 20:53 | 43.35269 | 18.36327 | 23871 ft | 480 kts | 240° |
| 2026-05-04 20:54 | 43.33552 | 18.32405 | 23088 ft | 477 kts | 240° |
| 2026-05-04 20:54 | 43.31849 | 18.28528 | 22390 ft | 470 kts | 240° |
| 2026-05-04 20:54 | 43.30172 | 18.24718 | 21710 ft | 463 kts | 240° |
| 2026-05-04 20:54 | 43.28511 | 18.20951 | 21033 ft | 458 kts | 240° |
| 2026-05-04 20:55 | 43.26872 | 18.17240 | 20368 ft | 453 kts | 240° |
| 2026-05-04 20:55 | 43.25250 | 18.13561 | 19702 ft | 448 kts | 240° |
| 2026-05-04 20:55 | 43.23648 | 18.09930 | 19045 ft | 443 kts | 239° |
| 2026-05-04 20:55 | 43.22057 | 18.06329 | 18396 ft | 439 kts | 239° |
| 2026-05-04 20:56 | 43.20487 | 18.02779 | 17718 ft | 433 kts | 239° |
| 2026-05-04 20:56 | 43.18933 | 17.99274 | 17131 ft | 427 kts | 239° |
| 2026-05-04 20:56 | 43.17403 | 17.95826 | 16539 ft | 422 kts | 239° |
| 2026-05-04 20:56 | 43.15887 | 17.92409 | 15991 ft | 417 kts | 239° |
| 2026-05-04 20:57 | 43.14382 | 17.89024 | 15445 ft | 414 kts | 239° |
| 2026-05-04 20:57 | 43.12889 | 17.85679 | 14914 ft | 410 kts | 239° |
| 2026-05-04 20:57 | 43.11409 | 17.82367 | 14382 ft | 407 kts | 239° |
| 2026-05-04 20:57 | 43.09939 | 17.79074 | 13829 ft | 403 kts | 238° |
| 2026-05-04 20:58 | 43.08495 | 17.75834 | 13595 ft | 391 kts | 238° |
| 2026-05-04 20:58 | 43.07108 | 17.72728 | 13436 ft | 375 kts | 238° |
| 2026-05-04 20:58 | 43.05790 | 17.69782 | 13312 ft | 361 kts | 238° |
| 2026-05-04 20:58 | 43.04329 | 17.67028 | 13178 ft | 346 kts | 227° |
| 2026-05-04 20:59 | 43.02617 | 17.64874 | 13041 ft | 333 kts | 216° |
| 2026-05-04 20:59 | 43.00714 | 17.63179 | 12913 ft | 320 kts | 211° |
| 2026-05-04 20:59 | 42.98860 | 17.61591 | 12782 ft | 309 kts | 212° |
| 2026-05-04 20:59 | 42.97075 | 17.60048 | 12655 ft | 299 kts | 212° |
| 2026-05-04 21:00 | 42.95350 | 17.58549 | 12518 ft | 289 kts | 212° |
| 2026-05-04 21:00 | 42.93667 | 17.57110 | 12313 ft | 282 kts | 207° |
| 2026-05-04 21:00 | 42.91833 | 17.56278 | 12206 ft | 278 kts | 185° |
| 2026-05-04 21:00 | 42.89921 | 17.56457 | 12046 ft | 278 kts | 163° |
| 2026-05-04 21:01 | 42.88197 | 17.57614 | 11615 ft | 279 kts | 141° |
| 2026-05-04 21:01 | 42.87260 | 17.58818 | 11337 ft | 279 kts | 133° |
| 2026-05-04 21:01 | 42.85921 | 17.60724 | 10965 ft | 279 kts | 134° |
| 2026-05-04 21:01 | 42.84580 | 17.62612 | 10644 ft | 277 kts | 134° |
| 2026-05-04 21:02 | 42.83229 | 17.64500 | 10321 ft | 277 kts | 134° |
| 2026-05-04 21:02 | 42.81888 | 17.66366 | 10022 ft | 275 kts | 135° |
| 2026-05-04 21:02 | 42.80548 | 17.68225 | 9659 ft | 274 kts | 135° |
| 2026-05-04 21:02 | 42.79219 | 17.70070 | 9335 ft | 272 kts | 135° |
| 2026-05-04 21:03 | 42.77900 | 17.71929 | 9007 ft | 271 kts | 130° |
| 2026-05-04 21:03 | 42.76867 | 17.74051 | 8679 ft | 269 kts | 118° |
| 2026-05-04 21:03 | 42.76002 | 17.76303 | 8369 ft | 267 kts | 118° |
| 2026-05-04 21:03 | 42.75138 | 17.78530 | 8048 ft | 266 kts | 118° |
| 2026-05-04 21:04 | 42.74271 | 17.80749 | 7727 ft | 265 kts | 118° |
| 2026-05-04 21:04 | 42.73403 | 17.82948 | 7420 ft | 263 kts | 119° |
| 2026-05-04 21:04 | 42.72537 | 17.85141 | 7092 ft | 262 kts | 120° |
| 2026-05-04 21:04 | 42.71681 | 17.87330 | 6775 ft | 261 kts | 119° |
| 2026-05-04 21:05 | 42.70831 | 17.89505 | 6458 ft | 260 kts | 119° |
| 2026-05-04 21:05 | 42.69992 | 17.91649 | 6184 ft | 255 kts | 119° |
| 2026-05-04 21:05 | 42.69144 | 17.93812 | 5572 ft | 261 kts | 119° |
| 2026-05-04 21:05 | 42.68309 | 17.95943 | 5196 ft | 248 kts | 119° |
| 2026-05-04 21:06 | 42.67531 | 17.97929 | 4876 ft | 235 kts | 119° |
| 2026-05-04 21:06 | 42.66759 | 17.99893 | 4565 ft | 231 kts | 120° |
| 2026-05-04 21:06 | 42.66013 | 18.01793 | 4272 ft | 223 kts | 119° |
| 2026-05-04 21:06 | 42.65317 | 18.03563 | 3981 ft | 208 kts | 118° |
| 2026-05-04 21:07 | 42.64656 | 18.05245 | 3722 ft | 195 kts | 118° |
| 2026-05-04 21:07 | 42.64048 | 18.06789 | 3484 ft | 175 kts | 118° |
| 2026-05-04 21:07 | 42.63505 | 18.08169 | 3245 ft | 159 kts | 118° |
| 2026-05-04 21:07 | 42.62986 | 18.09485 | 3040 ft | 157 kts | 118° |
| 2026-05-04 21:08 | 42.62474 | 18.10785 | 2834 ft | 155 kts | 118° |
| 2026-05-04 21:08 | 42.61967 | 18.12070 | 2629 ft | 153 kts | 118° |
| 2026-05-04 21:08 | 42.61464 | 18.13346 | 2423 ft | 153 kts | 118° |
| 2026-05-04 21:08 | 42.60963 | 18.14616 | 2217 ft | 152 kts | 118° |
| 2026-05-04 21:09 | 42.60464 | 18.15879 | 2014 ft | 152 kts | 118° |
| 2026-05-04 21:09 | 42.59968 | 18.17137 | 1811 ft | 151 kts | 117° |
| 2026-05-04 21:09 | 42.59476 | 18.18385 | 1619 ft | 151 kts | 117° |
| 2026-05-04 21:09 | 42.58981 | 18.19641 | 1412 ft | 151 kts | 116° |
| 2026-05-04 21:10 | 42.58485 | 18.20903 | 1193 ft | 152 kts | 116° |
| 2026-05-04 21:10 | 42.57978 | 18.22164 | 995 ft | 152 kts | 117° |
| 2026-05-04 21:10 | 42.57478 | 18.23440 | 796 ft | 153 kts | 117° |
| 2026-05-04 21:10 | 42.56980 | 18.24707 | 632 ft | 152 kts | 117° |
| 2026-05-04 21:11 | 42.56491 | 18.25934 | 536 ft | 135 kts | 117° |
| 2026-05-04 21:11 | 42.56166 | 18.26764 | 534 ft | 74 kts | 118° |
| 2026-05-04 21:11 | 42.55984 | 18.27216 | 533 ft | 33 kts | 124° |
| 2026-05-04 21:11 | 42.55853 | 18.27329 | 532 ft | 12 kts | 172° |
| 2026-05-04 21:12 | 42.55773 | 18.27329 | 534 ft | 11 kts | 211° |
| 2026-05-04 21:12 | 42.55782 | 18.27245 | 534 ft | 12 kts | 297° |
| 2026-05-04 21:12 | 42.55832 | 18.27116 | 534 ft | 19 kts | 298° |
| 2026-05-04 21:12 | 42.55903 | 18.26938 | 534 ft | 22 kts | 298° |
| 2026-05-04 21:13 | 42.55977 | 18.26751 | 534 ft | 23 kts | 298° |
| 2026-05-04 21:13 | 42.56055 | 18.26560 | 534 ft | 23 kts | 299° |
| 2026-05-04 21:13 | 42.56115 | 18.26411 | 534 ft | 11 kts | 297° |
| 2026-05-04 21:13 | 42.56130 | 18.26337 | 534 ft | 5 kts | 219° |
| 2026-05-04 21:14 | 42.56097 | 18.26309 | 534 ft | 3 kts | 207° |
| 2026-05-04 21:14 | 42.56090 | 18.26304 | 534 ft | 0 kts | 207° |